Dinsmore, Canada
Current Conditions -  °F | °C
As of 2:00 AM on Friday 24 Oct 2014 (Local Time) from CYXE Reporting Station
Broken Clouds Broken Clouds  
Wind Chill: 42°   Ceiling: 21000
Heat Index: 46°   Visibility: 15mi
Dew Point: 39°   Wind: 8mph
Humidity: 76%   Direction: 220°SW
Pressure: 29.56"   Gusts: NA
Location:  51.33°N, 107.45°W
Report Text: CYXE 240800Z 22007KT 15SM BKN210 08/04 A2956 RMK CI7 SLP022
Loading
Personal Weather Stations






























Interactive Weather Map
Tropical Storm Tracking
New forecast layout! Learn more

10-Day Weather Forecast

Advertisements
Track Severe Weather on mobile